Time;durP1;ratioP1;P1;durP2;ratioP2;P2;SDS_P1;SDS_P2;PMS_P1;PMS_P2;Temp;Humidity;BMP_temperature;BMP_pressure;BME280_temperature;BME280_humidity;BME280_pressure;Samples;Min_cycle;Max_cycle;Signal;HPM_P1;HPM_P2
2024/04/06 00:00:08;;;;;;;62.28;39.95;;;;;;;;;;4995529;28;20069;-67
2024/04/06 00:02:34;;;;;;;64.22;41.17;;;;;;;;;;4995534;28;20026;-69
2024/04/06 00:05:00;;;;;;;67.72;42.30;;;;;;;;;;4995424;28;20065;-68
2024/04/06 00:07:27;;;;;;;60.92;38.58;;;;;;;;;;4995166;28;20513;-69
2024/04/06 00:09:53;;;;;;;60.00;40.25;;;;;;;;;;4995193;28;20497;-67
2024/04/06 00:12:20;;;;;;;64.43;40.50;;;;;;;;;;4995128;28;20109;-68
2024/04/06 00:14:46;;;;;;;60.50;40.00;;;;;;;;;;4995234;28;20050;-67
2024/04/06 00:17:11;;;;;;;58.92;38.85;;;;;;;;;;4994889;28;20033;-69
2024/04/06 00:19:38;;;;;;;58.05;37.80;;;;;;;;;;4995048;28;20544;-69
2024/04/06 00:22:04;;;;;;;60.45;38.13;;;;;;;;;;4995120;28;20087;-68
2024/04/06 00:24:30;;;;;;;59.83;38.60;;;;;;;;;;4995062;28;20117;-67
2024/04/06 00:26:56;;;;;;;60.65;38.25;;;;;;;;;;4995087;28;20029;-66
2024/04/06 00:29:22;;;;;;;61.60;37.30;;;;;;;;;;4975927;28;20031;-66
2024/04/06 00:31:48;;;;;;;54.38;35.67;;;;;;;;;;4975658;28;20042;-66
2024/04/06 00:34:14;;;;;;;59.13;35.85;;;;;;;;;;4975406;28;20085;-68
2024/04/06 00:36:42;;;;;;;57.90;36.65;;;;;;;;;;4975559;28;20023;-68
2024/04/06 00:39:08;;;;;;;54.55;35.60;;;;;;;;;;4975261;28;20081;-68
2024/04/06 00:41:34;;;;;;;55.00;35.08;;;;;;;;;;4975030;28;20023;-66
2024/04/06 00:44:00;;;;;;;54.30;35.83;;;;;;;;;;4987455;28;20026;-68
2024/04/06 00:46:26;;;;;;;58.33;36.53;;;;;;;;;;4994618;28;20031;-65
2024/04/06 00:48:52;;;;;;;57.05;36.55;;;;;;;;;;4995018;28;20378;-65
2024/04/06 00:51:18;;;;;;;51.03;33.42;;;;;;;;;;4994566;28;20042;-66
2024/04/06 00:53:45;;;;;;;55.33;34.90;;;;;;;;;;4994745;28;20508;-66
2024/04/06 00:56:13;;;;;;;51.38;33.75;;;;;;;;;;4994520;28;20060;-66
2024/04/06 00:58:39;;;;;;;50.30;33.47;;;;;;;;;;4994676;28;20033;-67
2024/04/06 01:01:05;;;;;;;50.97;33.45;;;;;;;;;;4994418;28;20042;-66
2024/04/06 01:03:31;;;;;;;53.17;33.78;;;;;;;;;;4994597;28;20471;-66
2024/04/06 01:05:57;;;;;;;48.50;32.55;;;;;;;;;;4994553;28;20702;-66
2024/04/06 01:08:23;;;;;;;49.35;32.35;;;;;;;;;;4994301;28;20034;-68
2024/04/06 01:10:49;;;;;;;54.97;32.40;;;;;;;;;;4994335;28;20029;-68
2024/04/06 01:13:16;;;;;;;51.13;31.45;;;;;;;;;;4994188;28;20537;-66
2024/04/06 01:15:42;;;;;;;51.13;31.95;;;;;;;;;;4994139;28;20030;-68
2024/04/06 01:18:08;;;;;;;48.70;31.58;;;;;;;;;;4994029;28;20037;-69
2024/04/06 01:20:35;;;;;;;49.42;31.35;;;;;;;;;;4994167;28;20479;-66
2024/04/06 01:23:02;;;;;;;47.25;30.30;;;;;;;;;;4993932;28;20105;-68
2024/04/06 01:25:28;;;;;;;47.95;31.48;;;;;;;;;;4993887;28;20045;-69
2024/04/06 01:27:54;;;;;;;44.13;28.52;;;;;;;;;;4993779;28;20494;-68
2024/04/06 01:30:20;;;;;;;44.83;29.85;;;;;;;;;;4993805;28;20041;-69
2024/04/06 01:32:50;;;;;;;48.58;30.63;;;;;;;;;;4993761;28;20026;-68
2024/04/06 01:35:17;;;;;;;48.45;29.45;;;;;;;;;;4993747;28;20022;-68
2024/04/06 01:37:44;;;;;;;49.35;28.95;;;;;;;;;;4993740;28;20038;-69
2024/04/06 01:40:11;;;;;;;45.45;29.33;;;;;;;;;;4993657;28;20372;-70
2024/04/06 01:42:37;;;;;;;45.13;29.27;;;;;;;;;;4993256;28;20092;-68
2024/04/06 01:45:03;;;;;;;42.47;27.15;;;;;;;;;;4993559;28;20076;-68
2024/04/06 01:47:29;;;;;;;43.53;28.52;;;;;;;;;;4993480;28;20429;-68
2024/04/06 01:49:56;;;;;;;44.28;29.55;;;;;;;;;;4993517;28;20065;-69
2024/04/06 01:52:22;;;;;;;41.17;26.55;;;;;;;;;;4992727;28;20030;-68
2024/04/06 01:54:48;;;;;;;44.25;28.20;;;;;;;;;;4993392;28;20030;-69
2024/04/06 01:57:14;;;;;;;42.13;27.80;;;;;;;;;;4993054;28;20037;-69
2024/04/06 01:59:40;;;;;;;43.33;27.35;;;;;;;;;;4993360;28;20034;-69
2024/04/06 02:02:07;;;;;;;38.95;26.15;;;;;;;;;;4993325;28;20034;-69
2024/04/06 02:04:33;;;;;;;39.85;25.83;;;;;;;;;;4993407;28;20030;-68
2024/04/06 02:06:59;;;;;;;42.88;26.98;;;;;;;;;;4993263;28;20110;-68
2024/04/06 02:09:25;;;;;;;36.65;24.67;;;;;;;;;;4993124;28;20593;-67
2024/04/06 02:11:51;;;;;;;38.97;25.80;;;;;;;;;;4993012;28;20065;-68
2024/04/06 02:14:17;;;;;;;36.75;24.23;;;;;;;;;;4993172;28;20042;-67
2024/04/06 02:16:43;;;;;;;43.03;24.17;;;;;;;;;;4993206;28;20061;-69
2024/04/06 02:19:09;;;;;;;41.67;25.55;;;;;;;;;;4992989;28;20033;-68
2024/04/06 02:21:35;;;;;;;40.70;24.95;;;;;;;;;;4991659;28;20501;-67
2024/04/06 02:24:01;;;;;;;44.95;24.98;;;;;;;;;;4992873;28;20402;-68
2024/04/06 02:26:27;;;;;;;41.55;26.52;;;;;;;;;;4992820;28;20035;-69
2024/04/06 02:28:53;;;;;;;43.08;25.75;;;;;;;;;;4992772;28;20097;-68
2024/04/06 02:31:19;;;;;;;41.45;25.52;;;;;;;;;;4991777;28;20096;-68
2024/04/06 02:33:45;;;;;;;44.15;24.65;;;;;;;;;;4993096;28;20058;-68
2024/04/06 02:36:11;;;;;;;41.88;25.20;;;;;;;;;;4992884;28;20027;-69
2024/04/06 02:38:37;;;;;;;39.60;24.35;;;;;;;;;;4992576;28;20030;-69
2024/04/06 02:41:03;;;;;;;37.40;23.80;;;;;;;;;;4992594;28;20026;-69
2024/04/06 02:43:29;;;;;;;38.08;22.92;;;;;;;;;;4990904;28;20500;-68
2024/04/06 02:45:55;;;;;;;39.88;24.95;;;;;;;;;;4992758;28;20027;-69
2024/04/06 02:48:21;;;;;;;42.08;25.00;;;;;;;;;;4992627;28;20104;-68
2024/04/06 02:50:47;;;;;;;35.35;23.83;;;;;;;;;;4992455;28;20062;-70
2024/04/06 02:53:13;;;;;;;36.70;24.10;;;;;;;;;;4992349;28;20080;-70
2024/04/06 02:55:39;;;;;;;38.30;24.35;;;;;;;;;;4992474;28;20053;-70
2024/04/06 02:58:05;;;;;;;34.80;22.95;;;;;;;;;;4992168;28;20034;-72
2024/04/06 03:00:32;;;;;;;40.75;24.48;;;;;;;;;;4992482;28;20029;-69
2024/04/06 03:02:58;;;;;;;34.72;23.27;;;;;;;;;;4992334;28;20061;-68
2024/04/06 03:05:24;;;;;;;33.72;23.23;;;;;;;;;;4992127;28;20026;-70
2024/04/06 03:07:50;;;;;;;36.20;23.00;;;;;;;;;;4992325;28;20033;-67
2024/04/06 03:10:16;;;;;;;34.65;23.13;;;;;;;;;;4992241;28;20033;-70
2024/04/06 03:12:42;;;;;;;32.35;22.23;;;;;;;;;;4992061;28;20030;-68
2024/04/06 03:15:08;;;;;;;34.55;22.02;;;;;;;;;;4992192;28;20045;-69
2024/04/06 03:17:34;;;;;;;33.72;21.95;;;;;;;;;;4992085;28;20030;-68
2024/04/06 03:19:59;;;;;;;33.78;21.35;;;;;;;;;;4991964;28;20117;-68
2024/04/06 03:22:25;;;;;;;36.15;21.20;;;;;;;;;;4990703;28;20023;-67
2024/04/06 03:24:53;;;;;;;33.38;20.77;;;;;;;;;;4992320;28;20077;-68
2024/04/06 03:27:19;;;;;;;33.30;21.63;;;;;;;;;;4992233;28;20054;-68
2024/04/06 03:29:45;;;;;;;36.17;21.10;;;;;;;;;;4992170;28;20022;-69
2024/04/06 03:32:11;;;;;;;38.33;20.75;;;;;;;;;;4992015;28;20097;-69
2024/04/06 03:34:37;;;;;;;30.92;20.40;;;;;;;;;;4992117;28;20026;-69
2024/04/06 03:37:03;;;;;;;32.70;20.67;;;;;;;;;;4987204;28;20057;-69
2024/04/06 03:39:29;;;;;;;30.00;19.98;;;;;;;;;;4992162;28;20061;-68
2024/04/06 03:41:55;;;;;;;28.38;18.70;;;;;;;;;;4991900;28;20084;-68
2024/04/06 03:44:21;;;;;;;31.42;19.35;;;;;;;;;;4992005;28;20034;-69
2024/04/06 03:46:47;;;;;;;30.17;20.35;;;;;;;;;;4991991;28;20026;-68
2024/04/06 03:49:13;;;;;;;29.30;19.35;;;;;;;;;;4991935;28;20030;-69
2024/04/06 03:51:39;;;;;;;31.23;19.75;;;;;;;;;;4991710;28;20525;-68
2024/04/06 03:54:05;;;;;;;28.75;19.23;;;;;;;;;;5007030;28;20030;-68
2024/04/06 03:56:31;;;;;;;29.92;19.95;;;;;;;;;;4991988;28;20534;-69
2024/04/06 03:58:57;;;;;;;28.98;18.35;;;;;;;;;;4991964;28;20062;-68
2024/04/06 04:01:23;;;;;;;26.65;17.58;;;;;;;;;;4991787;28;20483;-69
2024/04/06 04:03:49;;;;;;;26.42;18.05;;;;;;;;;;5006828;28;20117;-69
2024/04/06 04:06:15;;;;;;;28.63;18.00;;;;;;;;;;4991768;28;20513;-69
2024/04/06 04:08:43;;;;;;;25.88;18.02;;;;;;;;;;4991852;28;20034;-68
2024/04/06 04:11:09;;;;;;;27.98;17.60;;;;;;;;;;4992007;28;20026;-68
2024/04/06 04:13:35;;;;;;;27.13;17.60;;;;;;;;;;4991641;28;20029;-68
2024/04/06 04:16:01;;;;;;;24.35;16.77;;;;;;;;;;5007992;28;20081;-67
2024/04/06 04:18:28;;;;;;;25.63;16.58;;;;;;;;;;4995236;28;20030;-69
2024/04/06 04:20:54;;;;;;;27.00;17.40;;;;;;;;;;4995069;28;20028;-66
2024/04/06 04:23:20;;;;;;;24.33;16.38;;;;;;;;;;4995125;28;20110;-67
2024/04/06 04:25:46;;;;;;;24.63;16.45;;;;;;;;;;4995444;28;20050;-67
2024/04/06 04:28:12;;;;;;;23.85;16.02;;;;;;;;;;4995080;28;20031;-67
2024/04/06 04:30:38;;;;;;;23.45;15.32;;;;;;;;;;4995080;28;20034;-68
2024/04/06 04:33:04;;;;;;;23.55;15.88;;;;;;;;;;4994915;28;20034;-66
2024/04/06 04:35:30;;;;;;;24.73;16.33;;;;;;;;;;4994916;28;20023;-68
2024/04/06 04:37:56;;;;;;;22.85;15.35;;;;;;;;;;4994945;28;20037;-67
2024/04/06 04:40:22;;;;;;;21.95;14.52;;;;;;;;;;4994819;28;20501;-67
2024/04/06 04:42:47;;;;;;;25.13;15.82;;;;;;;;;;4994773;28;20026;-67
2024/04/06 04:45:14;;;;;;;21.90;14.80;;;;;;;;;;4994837;28;20026;-67
2024/04/06 04:47:41;;;;;;;22.33;15.75;;;;;;;;;;4994775;28;20046;-68
2024/04/06 04:50:09;;;;;;;23.05;14.57;;;;;;;;;;4994482;28;20019;-68
2024/04/06 04:52:35;;;;;;;21.88;14.95;;;;;;;;;;4994410;28;20023;-68
2024/04/06 04:55:00;;;;;;;22.17;14.07;;;;;;;;;;4994831;28;20022;-68
2024/04/06 04:57:26;;;;;;;21.23;14.68;;;;;;;;;;4994273;28;20446;-68
2024/04/06 04:59:52;;;;;;;21.35;13.02;;;;;;;;;;4994474;28;20029;-67
2024/04/06 05:02:18;;;;;;;20.80;13.63;;;;;;;;;;4994350;28;20038;-69
2024/04/06 05:04:45;;;;;;;21.00;12.93;;;;;;;;;;4994318;28;20029;-68
2024/04/06 05:07:11;;;;;;;22.23;14.02;;;;;;;;;;4994242;28;20037;-68
2024/04/06 05:09:37;;;;;;;20.85;14.00;;;;;;;;;;4994424;28;20030;-68
2024/04/06 05:12:03;;;;;;;19.05;13.23;;;;;;;;;;4994250;28;20137;-68
2024/04/06 05:14:29;;;;;;;19.67;13.02;;;;;;;;;;4994289;28;20030;-68
2024/04/06 05:16:55;;;;;;;19.80;13.10;;;;;;;;;;4994269;28;20030;-67
2024/04/06 05:19:21;;;;;;;18.90;12.85;;;;;;;;;;4993839;28;20496;-67
2024/04/06 05:21:47;;;;;;;19.05;13.38;;;;;;;;;;4994070;28;20113;-68
2024/04/06 05:24:13;;;;;;;17.23;12.30;;;;;;;;;;4994125;28;20026;-67
2024/04/06 05:26:44;;;;;;;17.92;12.38;;;;;;;;;;4993605;28;20164;-68
2024/04/06 05:29:11;;;;;;;17.52;11.55;;;;;;;;;;4993569;28;20018;-68
2024/04/06 05:31:37;;;;;;;19.55;11.50;;;;;;;;;;4993664;28;20027;-66
2024/04/06 05:34:04;;;;;;;19.00;11.82;;;;;;;;;;4993888;28;20470;-67
2024/04/06 05:36:30;;;;;;;21.30;11.45;;;;;;;;;;4994062;28;20030;-68
2024/04/06 05:38:56;;;;;;;18.45;12.30;;;;;;;;;;4993786;28;20274;-69
2024/04/06 05:41:22;;;;;;;22.83;11.85;;;;;;;;;;4992945;28;20033;-68
2024/04/06 05:43:48;;;;;;;18.75;11.98;;;;;;;;;;4993741;28;20022;-67
2024/04/06 05:46:14;;;;;;;16.58;11.35;;;;;;;;;;4993498;28;20478;-68
2024/04/06 05:48:40;;;;;;;23.60;11.93;;;;;;;;;;4993690;28;20034;-68
2024/04/06 05:51:06;;;;;;;21.45;12.13;;;;;;;;;;4993603;28;20026;-68
2024/04/06 05:53:32;;;;;;;20.90;11.95;;;;;;;;;;4993368;28;20041;-70
2024/04/06 05:55:58;;;;;;;20.77;12.50;;;;;;;;;;4993427;28;20033;-67
2024/04/06 05:58:24;;;;;;;50.58;15.35;;;;;;;;;;4993227;28;20030;-67
2024/04/06 06:00:50;;;;;;;23.90;14.25;;;;;;;;;;4993278;28;20031;-66
2024/04/06 06:03:16;;;;;;;20.92;11.82;;;;;;;;;;4993212;28;20026;-69
2024/04/06 06:05:42;;;;;;;23.65;13.30;;;;;;;;;;4993343;28;20022;-65
2024/04/06 06:08:08;;;;;;;21.58;12.85;;;;;;;;;;4993231;28;20026;-65
2024/04/06 06:10:34;;;;;;;18.17;11.85;;;;;;;;;;4993073;28;20034;-65
2024/04/06 06:13:01;;;;;;;19.80;12.00;;;;;;;;;;4992870;28;20046;-65
2024/04/06 06:15:27;;;;;;;35.70;12.13;;;;;;;;;;4993052;28;20026;-66
2024/04/06 06:17:53;;;;;;;35.60;11.88;;;;;;;;;;4992967;28;20048;-67
2024/04/06 06:20:19;;;;;;;30.75;12.18;;;;;;;;;;4991414;28;20023;-67
2024/04/06 06:22:45;;;;;;;22.52;12.95;;;;;;;;;;4973422;28;20093;-67
2024/04/06 06:25:11;;;;;;;21.27;11.77;;;;;;;;;;4978193;28;20126;-67
2024/04/06 06:27:38;;;;;;;23.38;10.57;;;;;;;;;;4985178;28;20174;-66
2024/04/06 06:30:04;;;;;;;21.67;11.32;;;;;;;;;;4992667;28;20109;-67
2024/04/06 06:32:30;;;;;;;18.42;10.35;;;;;;;;;;4991553;28;20037;-68
2024/04/06 06:34:56;;;;;;;19.52;10.27;;;;;;;;;;4992743;28;20480;-66
2024/04/06 06:37:22;;;;;;;19.50;9.60;;;;;;;;;;4992414;28;20109;-68
2024/04/06 06:39:48;;;;;;;20.25;9.60;;;;;;;;;;4992404;28;20081;-66
2024/04/06 06:42:14;;;;;;;17.08;9.70;;;;;;;;;;4992350;28;20461;-67
2024/04/06 06:44:40;;;;;;;20.00;9.82;;;;;;;;;;4991704;28;20018;-67
2024/04/06 06:47:06;;;;;;;25.77;10.73;;;;;;;;;;4991821;28;20101;-69
2024/04/06 06:49:32;;;;;;;61.80;11.32;;;;;;;;;;4992619;28;20113;-68
2024/04/06 06:51:59;;;;;;;20.88;9.95;;;;;;;;;;4988881;28;20506;-67
2024/04/06 06:54:26;;;;;;;23.30;10.43;;;;;;;;;;4984966;28;20467;-67
2024/04/06 06:56:52;;;;;;;22.10;9.70;;;;;;;;;;4996653;28;20064;-66
2024/04/06 06:59:18;;;;;;;18.15;9.40;;;;;;;;;;5000651;28;20069;-71
2024/04/06 07:01:44;;;;;;;10.68;5.50;;;;;;;;;;4992157;28;20022;-71
2024/04/06 07:04:11;;;;;;;7.13;3.92;;;;;;;;;;4992257;28;20497;-71
2024/04/06 07:06:37;;;;;;;6.45;3.63;;;;;;;;;;4992403;28;20040;-70
2024/04/06 07:09:04;;;;;;;4.60;3.05;;;;;;;;;;4991709;28;20026;-70
2024/04/06 07:11:30;;;;;;;6.35;2.50;;;;;;;;;;4991853;28;20525;-70
2024/04/06 07:13:56;;;;;;;4.60;2.13;;;;;;;;;;4992019;28;20034;-70
2024/04/06 07:16:25;;;;;;;3.47;1.50;;;;;;;;;;4992377;28;20035;-69
2024/04/06 07:18:51;;;;;;;3.60;1.42;;;;;;;;;;4991950;28;20023;-70
2024/04/06 07:21:17;;;;;;;1.83;1.10;;;;;;;;;;4991653;28;20042;-70
2024/04/06 07:23:43;;;;;;;1.80;1.33;;;;;;;;;;4991725;28;20030;-71
2024/04/06 07:26:10;;;;;;;3.00;1.10;;;;;;;;;;4992060;28;20033;-71
2024/04/06 07:28:39;;;;;;;4.30;1.88;;;;;;;;;;4992039;28;20026;-69
2024/04/06 07:31:05;;;;;;;2.53;1.25;;;;;;;;;;4992049;28;20030;-68
2024/04/06 07:33:31;;;;;;;11.98;6.82;;;;;;;;;;4991941;28;20023;-67
2024/04/06 07:35:57;;;;;;;11.77;7.25;;;;;;;;;;4992189;28;20037;-67
2024/04/06 07:38:26;;;;;;;17.10;5.68;;;;;;;;;;4991769;28;20489;-68
2024/04/06 07:40:59;;;;;;;9.27;5.45;;;;;;;;;;4991794;28;20064;-67
2024/04/06 07:43:25;;;;;;;15.18;6.07;;;;;;;;;;4992000;28;20022;-67
2024/04/06 07:45:51;;;;;;;12.90;6.32;;;;;;;;;;4992017;28;20076;-67
2024/04/06 07:48:17;;;;;;;11.85;6.38;;;;;;;;;;4991873;28;20685;-66
2024/04/06 07:50:47;;;;;;;12.38;6.00;;;;;;;;;;4992841;28;20019;-67
2024/04/06 07:53:13;;;;;;;9.77;5.63;;;;;;;;;;4995556;28;20104;-67
2024/04/06 07:55:39;;;;;;;12.20;5.85;;;;;;;;;;4995515;28;20034;-67
2024/04/06 07:58:06;;;;;;;10.45;5.22;;;;;;;;;;4995418;28;20030;-66
2024/04/06 08:00:32;;;;;;;11.82;5.25;;;;;;;;;;4995470;28;20430;-68
2024/04/06 08:02:58;;;;;;;9.70;4.75;;;;;;;;;;4995049;28;20034;-66
2024/04/06 08:05:24;;;;;;;15.18;4.43;;;;;;;;;;4995331;28;20472;-67
2024/04/06 08:07:50;;;;;;;8.60;5.03;;;;;;;;;;4995319;28;20106;-66
2024/04/06 08:10:25;;;;;;;11.30;4.10;;;;;;;;;;4995308;28;20054;-66
2024/04/06 08:12:55;;;;;;;9.25;4.32;;;;;;;;;;4996815;28;20031;-66
2024/04/06 08:15:21;;;;;;;10.88;4.82;;;;;;;;;;4982307;28;20018;-66
2024/04/06 08:17:52;;;;;;;8.80;4.10;;;;;;;;;;4992030;28;20030;-66
2024/04/06 08:20:18;;;;;;;;;;;;;;;;;;4994835;28;20022;-67
2024/04/06 08:22:44;;;;;;;9.85;5.05;;;;;;;;;;4986997;28;19910;-66
2024/04/06 08:25:11;;;;;;;11.57;4.78;;;;;;;;;;4999083;28;20019;-67
2024/04/06 08:27:37;;;;;;;12.88;4.70;;;;;;;;;;5004942;28;20489;-68
2024/04/06 08:30:06;;;;;;;20.95;4.80;;;;;;;;;;4996440;28;20076;-66
2024/04/06 08:32:35;;;;;;;9.75;4.38;;;;;;;;;;4997753;28;20026;-66
2024/04/06 08:35:01;;;;;;;8.82;4.10;;;;;;;;;;5002956;28;20041;-65
2024/04/06 08:37:27;;;;;;;6.95;3.72;;;;;;;;;;5007506;28;20048;-67
2024/04/06 08:39:54;;;;;;;8.63;4.32;;;;;;;;;;5014409;28;20029;-67
2024/04/06 08:42:20;;;;;;;8.80;4.22;;;;;;;;;;5014091;28;20026;-68
2024/04/06 08:44:47;;;;;;;14.80;4.63;;;;;;;;;;5014401;28;20044;-66
2024/04/06 08:47:14;;;;;;;10.48;4.32;;;;;;;;;;5014689;28;20025;-71
2024/04/06 08:49:43;;;;;;;15.98;4.88;;;;;;;;;;5013833;28;20111;-66
2024/04/06 08:52:10;;;;;;;22.05;4.85;;;;;;;;;;5014467;28;20092;-66
2024/04/06 08:54:36;;;;;;;18.83;5.38;;;;;;;;;;5014228;28;20080;-68
2024/04/06 08:57:04;;;;;;;24.48;5.75;;;;;;;;;;5014078;28;20125;-67
2024/04/06 08:59:30;;;;;;;40.70;5.47;;;;;;;;;;4996448;28;20114;-64
2024/04/06 09:01:56;;;;;;;32.33;5.22;;;;;;;;;;4994023;28;20023;-67
2024/04/06 09:04:22;;;;;;;19.27;5.03;;;;;;;;;;4994721;28;20018;-68
2024/04/06 09:06:48;;;;;;;23.70;5.35;;;;;;;;;;4994342;28;20054;-65
2024/04/06 09:09:15;;;;;;;13.32;4.38;;;;;;;;;;4994790;28;20026;-64
2024/04/06 09:11:42;;;;;;;18.92;5.07;;;;;;;;;;4994641;28;20037;-65
2024/04/06 09:14:08;;;;;;;14.75;4.50;;;;;;;;;;4994147;28;20030;-64
2024/04/06 09:16:34;;;;;;;38.15;6.13;;;;;;;;;;4993793;28;20516;-64
2024/04/06 09:19:01;;;;;;;22.20;5.07;;;;;;;;;;4993765;28;20058;-64
2024/04/06 09:21:28;;;;;;;14.52;4.20;;;;;;;;;;4993665;28;20029;-65
2024/04/06 09:23:54;;;;;;;16.88;5.38;;;;;;;;;;4993658;28;20098;-64
2024/04/06 09:26:20;;;;;;;10.38;3.67;;;;;;;;;;4992280;28;20026;-65
2024/04/06 09:28:53;;;;;;;17.58;4.50;;;;;;;;;;4993601;28;20022;-65
2024/04/06 09:31:20;;;;;;;18.27;3.53;;;;;;;;;;4993529;28;20022;-64
2024/04/06 09:33:48;;;;;;;15.10;4.47;;;;;;;;;;4993659;28;20026;-66
2024/04/06 09:36:14;;;;;;;12.52;3.78;;;;;;;;;;4993446;28;20502;-66
2024/04/06 09:38:41;;;;;;;16.92;3.45;;;;;;;;;;4993239;28;20026;-64
2024/04/06 09:41:07;;;;;;;11.73;3.35;;;;;;;;;;4993039;28;20026;-65
2024/04/06 09:43:33;;;;;;;9.75;3.22;;;;;;;;;;4993384;28;20146;-66
2024/04/06 09:45:59;;;;;;;9.55;3.17;;;;;;;;;;4993442;28;20050;-64
2024/04/06 09:48:27;;;;;;;11.98;3.72;;;;;;;;;;4992948;28;20525;-65
2024/04/06 09:50:53;;;;;;;9.52;2.88;;;;;;;;;;4992962;28;20058;-64
2024/04/06 09:53:19;;;;;;;14.45;2.97;;;;;;;;;;4992791;28;20058;-64
2024/04/06 09:55:45;;;;;;;8.05;2.83;;;;;;;;;;4992899;28;20435;-65
2024/04/06 09:58:12;;;;;;;7.43;2.35;;;;;;;;;;4992712;28;20046;-65
2024/04/06 10:00:38;;;;;;;7.90;2.80;;;;;;;;;;4992742;28;20022;-65
2024/04/06 10:03:05;;;;;;;8.90;3.30;;;;;;;;;;4992679;28;20026;-65
2024/04/06 10:05:57;;;;;;;11.80;2.85;;;;;;;;;;4992696;28;20386;-65
2024/04/06 10:08:25;;;;;;;8.00;2.67;;;;;;;;;;4991367;28;20038;-65
2024/04/06 10:10:51;;;;;;;13.07;2.65;;;;;;;;;;4991819;28;20026;-65
2024/04/06 10:13:21;;;;;;;6.65;2.55;;;;;;;;;;4991193;28;20112;-65
2024/04/06 10:15:47;;;;;;;5.85;2.17;;;;;;;;;;4991966;28;20038;-64
2024/04/06 10:18:13;;;;;;;7.88;2.35;;;;;;;;;;4991671;28;20117;-64
2024/04/06 10:20:44;;;;;;;5.63;1.75;;;;;;;;;;4991709;28;20119;-65
2024/04/06 10:23:13;;;;;;;7.35;2.63;;;;;;;;;;4991642;28;20026;-65
2024/04/06 10:25:39;;;;;;;7.30;2.55;;;;;;;;;;4991812;28;20033;-64
2024/04/06 10:28:11;;;;;;;4.68;2.25;;;;;;;;;;4991625;28;20023;-65
2024/04/06 10:30:38;;;;;;;3.65;1.92;;;;;;;;;;4991708;28;20030;-64
2024/04/06 10:33:04;;;;;;;5.55;1.88;;;;;;;;;;4991325;28;20033;-64
2024/04/06 10:35:30;;;;;;;3.42;1.98;;;;;;;;;;4991616;28;20030;-65
2024/04/06 10:37:56;;;;;;;3.28;1.48;;;;;;;;;;4991516;28;20475;-63
2024/04/06 10:40:23;;;;;;;6.63;1.88;;;;;;;;;;4991599;28;20406;-65
2024/04/06 10:42:50;;;;;;;4.00;1.85;;;;;;;;;;4991671;28;20030;-64
2024/04/06 10:45:16;;;;;;;4.68;1.90;;;;;;;;;;4991299;28;20132;-65
2024/04/06 10:47:42;;;;;;;3.78;1.60;;;;;;;;;;4991143;28;20026;-64
2024/04/06 10:50:09;;;;;;;18.55;1.67;;;;;;;;;;4990905;28;20161;-63
2024/04/06 10:52:39;;;;;;;4.80;1.45;;;;;;;;;;4990763;28;20475;-65
2024/04/06 10:55:15;;;;;;;4.68;1.83;;;;;;;;;;4990935;28;20406;-64
2024/04/06 10:57:44;;;;;;;4.13;1.60;;;;;;;;;;4990788;28;20044;-64
2024/04/06 11:00:11;;;;;;;2.53;1.10;;;;;;;;;;4990945;28;20058;-64
2024/04/06 11:02:38;;;;;;;3.08;1.35;;;;;;;;;;4990990;28;20030;-64
2024/04/06 11:05:04;;;;;;;4.88;1.92;;;;;;;;;;4991057;28;20026;-64
2024/04/06 11:07:31;;;;;;;4.75;1.75;;;;;;;;;;4990946;28;20446;-65
2024/04/06 11:09:57;;;;;;;2.92;1.52;;;;;;;;;;4990941;28;20057;-65
2024/04/06 11:12:29;;;;;;;5.07;1.55;;;;;;;;;;4990614;28;20113;-66
2024/04/06 11:14:59;;;;;;;3.13;1.35;;;;;;;;;;4990687;28;20030;-64
2024/04/06 11:17:25;;;;;;;4.75;1.30;;;;;;;;;;4990559;28;20022;-65
2024/04/06 11:19:59;;;;;;;2.15;0.93;;;;;;;;;;4990606;28;20081;-65
2024/04/06 11:22:25;;;;;;;5.43;1.40;;;;;;;;;;4990491;28;20564;-65
2024/04/06 11:24:51;;;;;;;1.73;0.90;;;;;;;;;;4990558;28;20022;-64
2024/04/06 11:27:21;;;;;;;4.40;1.17;;;;;;;;;;4993779;28;20027;-65
2024/04/06 11:29:48;;;;;;;1.75;1.00;;;;;;;;;;4994488;28;20153;-64
2024/04/06 11:32:19;;;;;;;3.42;1.10;;;;;;;;;;4994709;28;20022;-65
2024/04/06 11:34:45;;;;;;;1.90;0.95;;;;;;;;;;4995240;28;20033;-65
2024/04/06 11:37:11;;;;;;;3.55;1.23;;;;;;;;;;4995048;28;20676;-65
2024/04/06 11:39:37;;;;;;;3.15;1.23;;;;;;;;;;4994877;28;20027;-65
2024/04/06 11:42:03;;;;;;;2.20;1.02;;;;;;;;;;4994677;28;20029;-64
2024/04/06 11:44:29;;;;;;;1.75;0.95;;;;;;;;;;4994911;28;20018;-65
2024/04/06 11:46:55;;;;;;;1.23;0.60;;;;;;;;;;4995272;28;20098;-64
2024/04/06 11:49:22;;;;;;;0.90;0.60;;;;;;;;;;4995405;28;20068;-68
2024/04/06 11:51:48;;;;;;;1.10;0.60;;;;;;;;;;4995141;28;20084;-67
2024/04/06 11:54:14;;;;;;;2.08;1.15;;;;;;;;;;4995130;28;20027;-67
2024/04/06 11:56:40;;;;;;;3.00;1.05;;;;;;;;;;4994964;28;20457;-65
2024/04/06 11:59:07;;;;;;;2.45;1.10;;;;;;;;;;4993456;28;20026;-65
2024/04/06 12:01:33;;;;;;;2.72;1.30;;;;;;;;;;4993464;28;20030;-65
2024/04/06 12:03:59;;;;;;;3.40;1.60;;;;;;;;;;4994651;28;20029;-64
2024/04/06 12:06:25;;;;;;;2.35;1.10;;;;;;;;;;4994782;28;20461;-64
2024/04/06 12:08:52;;;;;;;4.05;1.40;;;;;;;;;;4994527;28;20023;-63
2024/04/06 12:11:18;;;;;;;3.25;1.40;;;;;;;;;;4994223;28;20045;-65
2024/04/06 12:13:44;;;;;;;2.75;1.25;;;;;;;;;;4994195;28;20022;-65
2024/04/06 12:16:10;;;;;;;2.42;1.25;;;;;;;;;;4994250;28;20024;-65
2024/04/06 12:18:36;;;;;;;2.33;1.10;;;;;;;;;;4994221;28;20402;-65
2024/04/06 12:21:02;;;;;;;3.67;1.40;;;;;;;;;;4994241;28;20018;-64
2024/04/06 12:23:28;;;;;;;1.98;1.15;;;;;;;;;;4993909;28;20054;-65
2024/04/06 12:25:54;;;;;;;2.92;1.30;;;;;;;;;;4993523;28;20560;-65
2024/04/06 12:28:20;;;;;;;2.05;1.20;;;;;;;;;;4993267;28;20058;-64
2024/04/06 12:30:46;;;;;;;3.80;1.45;;;;;;;;;;4994146;28;20073;-63
2024/04/06 12:33:12;;;;;;;3.38;1.23;;;;;;;;;;4993955;28;20042;-64
2024/04/06 12:35:42;;;;;;;1.30;1.20;;;;;;;;;;4993950;28;20121;-64
2024/04/06 12:38:08;;;;;;;1.48;1.13;;;;;;;;;;4992114;28;20332;-65
2024/04/06 12:40:34;;;;;;;1.52;1.17;;;;;;;;;;4992514;28;20105;-65
2024/04/06 12:43:00;;;;;;;1.92;1.33;;;;;;;;;;4992793;28;20126;-64
2024/04/06 12:45:27;;;;;;;3.30;1.50;;;;;;;;;;4993885;28;20372;-64
2024/04/06 12:47:53;;;;;;;2.70;1.38;;;;;;;;;;4992274;28;20032;-64
2024/04/06 12:50:19;;;;;;;3.05;1.30;;;;;;;;;;4993364;28;20264;-64
2024/04/06 12:52:45;;;;;;;2.75;1.10;;;;;;;;;;4993391;28;20044;-65
2024/04/06 12:55:11;;;;;;;2.13;1.48;;;;;;;;;;4993592;28;20026;-65
2024/04/06 12:57:39;;;;;;;2.58;1.27;;;;;;;;;;4993489;28;20493;-64
2024/04/06 13:00:06;;;;;;;2.42;1.25;;;;;;;;;;4993683;28;20105;-64
2024/04/06 13:02:38;;;;;;;2.03;1.42;;;;;;;;;;4993473;28;20037;-66
2024/04/06 13:05:08;;;;;;;1.85;1.15;;;;;;;;;;4993467;28;20034;-65
2024/04/06 13:07:34;;;;;;;2.40;1.15;;;;;;;;;;4993258;28;20398;-66
2024/04/06 13:10:00;;;;;;;1.75;1.15;;;;;;;;;;4993542;28;20037;-63
2024/04/06 13:12:36;;;;;;;2.88;1.23;;;;;;;;;;4993410;28;20026;-65
2024/04/06 13:15:12;;;;;;;1.52;1.00;;;;;;;;;;4993455;28;20550;-64
2024/04/06 13:17:39;;;;;;;2.05;1.15;;;;;;;;;;4993082;28;20041;-65
2024/04/06 13:22:41;;;;;;;2.08;1.23;;;;;;;;;;4993093;28;20022;-65
2024/04/06 13:25:07;;;;;;;2.03;1.00;;;;;;;;;;4993355;28;20023;-65
2024/04/06 13:27:34;;;;;;;2.85;1.63;;;;;;;;;;4993193;28;20023;-65
2024/04/06 13:30:00;;;;;;;2.33;1.20;;;;;;;;;;4993158;28;20054;-64
2024/04/06 13:32:26;;;;;;;1.70;1.13;;;;;;;;;;4992795;28;20088;-64
2024/04/06 13:34:53;;;;;;;1.67;1.15;;;;;;;;;;4993066;28;20037;-64
2024/04/06 13:37:19;;;;;;;2.58;1.00;;;;;;;;;;4992865;28;20022;-66
2024/04/06 13:39:45;;;;;;;1.50;0.93;;;;;;;;;;4992675;28;20479;-65
2024/04/06 13:42:12;;;;;;;1.30;1.10;;;;;;;;;;4992561;28;20026;-64
2024/04/06 13:44:38;;;;;;;2.22;1.10;;;;;;;;;;4992728;28;20030;-65
2024/04/06 13:47:04;;;;;;;3.42;1.10;;;;;;;;;;4992583;28;20398;-65
2024/04/06 13:49:31;;;;;;;1.42;0.80;;;;;;;;;;4991807;28;20046;-67
2024/04/06 13:51:57;;;;;;;1.60;0.75;;;;;;;;;;4992903;28;20026;-66
2024/04/06 13:54:23;;;;;;;2.80;1.30;;;;;;;;;;4993085;28;20467;-64
2024/04/06 13:56:49;;;;;;;1.10;0.93;;;;;;;;;;4992585;28;20042;-64
2024/04/06 13:59:15;;;;;;;0.90;0.80;;;;;;;;;;4992281;28;20117;-65
2024/04/06 14:01:41;;;;;;;1.10;0.63;;;;;;;;;;4992355;28;20491;-63
2024/04/06 14:04:07;;;;;;;1.38;1.02;;;;;;;;;;4992443;28;20065;-65
2024/04/06 14:06:33;;;;;;;1.92;0.90;;;;;;;;;;4992392;28;20347;-64
2024/04/06 14:08:59;;;;;;;1.20;1.00;;;;;;;;;;4992297;28;20494;-65
2024/04/06 14:11:32;;;;;;;2.45;0.90;;;;;;;;;;4992013;28;20121;-64
2024/04/06 14:14:02;;;;;;;2.55;1.00;;;;;;;;;;4992162;28;20030;-65
2024/04/06 14:16:31;;;;;;;1.85;1.13;;;;;;;;;;4992195;28;20101;-65
2024/04/06 14:18:57;;;;;;;1.10;0.90;;;;;;;;;;4991995;28;20030;-63
2024/04/06 14:21:23;;;;;;;1.73;1.10;;;;;;;;;;4991903;28;20070;-65
2024/04/06 14:23:49;;;;;;;0.85;0.82;;;;;;;;;;4991984;28;20026;-65
2024/04/06 14:26:16;;;;;;;1.20;1.00;;;;;;;;;;4991870;28;20027;-65